createdAt,value
2022-10-19T00:02:17.538Z,83.24
2022-10-19T00:04:44.529Z,83.27
2022-10-19T00:07:11.017Z,83.32
2022-10-19T00:09:37.520Z,83.21
2022-10-19T00:12:04.116Z,83.31
2022-10-19T00:14:30.570Z,83.17
2022-10-19T00:16:58.095Z,82.96
2022-10-19T00:19:26.875Z,83.08
2022-10-19T00:21:53.695Z,83.28
2022-10-19T00:24:20.275Z,83.72
2022-10-19T00:26:46.804Z,84.51
2022-10-19T00:29:14.837Z,84.50
2022-10-19T00:31:41.760Z,84.67
2022-10-19T00:34:08.300Z,84.83
2022-10-19T00:36:37.981Z,84.97
2022-10-19T00:39:06.355Z,86.07
2022-10-19T00:41:35.029Z,85.68
2022-10-19T00:44:08.226Z,86.64
2022-10-19T00:46:37.716Z,86.89
2022-10-19T00:49:21.733Z,87.09
2022-10-19T00:51:52.472Z,87.25
2022-10-19T00:54:19.232Z,87.31
2022-10-19T00:56:48.692Z,86.97
2022-10-19T00:59:18.766Z,87.66
2022-10-19T01:01:46.097Z,87.31
2022-10-19T01:04:13.966Z,87.35
2022-10-19T01:06:41.344Z,87.71
2022-10-19T01:09:08.616Z,87.29
2022-10-19T01:11:57.554Z,87.93
2022-10-19T01:14:36.178Z,87.92
2022-10-19T01:17:08.733Z,88.03
2022-10-19T01:20:05.928Z,88.07
2022-10-19T01:23:00.269Z,87.92
2022-10-19T01:25:49.648Z,88.04
2022-10-19T01:28:50.153Z,88.37
2022-10-19T01:31:58.147Z,88.31
2022-10-19T01:34:38.713Z,88.28
2022-10-19T01:37:19.012Z,88.29
2022-10-19T01:40:09.633Z,88.48
2022-10-19T01:42:59.021Z,88.02
2022-10-19T01:45:28.516Z,87.89
2022-10-19T01:48:04.458Z,88.25
2022-10-19T01:50:40.934Z,88.26
2022-10-19T01:53:10.766Z,87.97
2022-10-19T01:55:42.728Z,88.09
2022-10-19T01:58:13.426Z,88.17
2022-10-19T02:00:43.837Z,88.02
2022-10-19T02:03:12.806Z,87.84
2022-10-19T02:05:40.583Z,87.93
2022-10-19T02:08:17.143Z,87.95
2022-10-19T02:10:45.167Z,87.95
2022-10-19T02:13:14.663Z,88.19
2022-10-19T02:15:44.560Z,87.89
2022-10-19T02:18:15.404Z,87.90
2022-10-19T02:20:41.903Z,88.00
2022-10-19T02:23:08.956Z,88.02
2022-10-19T02:25:36.338Z,88.06
2022-10-19T02:28:04.587Z,87.93
2022-10-19T02:30:31.195Z,87.61
2022-10-19T02:32:57.693Z,87.50
2022-10-19T02:35:24.290Z,88.04
2022-10-19T02:37:50.806Z,88.01
2022-10-19T02:40:17.485Z,88.03
2022-10-19T02:42:57.292Z,89.03
2022-10-19T02:45:28.151Z,88.39
2022-10-19T02:48:23.195Z,88.48
2022-10-19T02:50:49.731Z,88.48
2022-10-19T02:53:16.563Z,88.51
2022-10-19T02:55:43.350Z,88.75
2022-10-19T02:58:09.911Z,88.71
2022-10-19T03:00:36.499Z,88.72
2022-10-19T03:03:03.110Z,88.86
2022-10-19T03:05:29.868Z,89.16
2022-10-19T03:07:56.362Z,88.99
2022-10-19T03:10:23.073Z,89.31
2022-10-19T03:12:49.540Z,89.35
2022-10-19T03:15:17.856Z,89.41
2022-10-19T03:17:44.326Z,89.29
2022-10-19T03:20:11.726Z,89.63
2022-10-19T03:22:38.181Z,89.59
2022-10-19T03:25:05.051Z,89.63
2022-10-19T03:27:31.888Z,90.11
2022-10-19T03:29:58.580Z,90.14
2022-10-19T03:32:25.081Z,89.89
2022-10-19T03:34:51.519Z,89.96
2022-10-19T03:37:17.988Z,89.72
2022-10-19T03:39:44.451Z,89.69
2022-10-19T03:42:10.918Z,89.66
2022-10-19T03:44:37.366Z,89.75
2022-10-19T03:47:03.844Z,89.31
2022-10-19T03:49:30.309Z,89.60
2022-10-19T03:51:56.772Z,89.72
2022-10-19T03:54:26.516Z,89.54
2022-10-19T03:56:54.011Z,89.68
2022-10-19T03:59:20.567Z,89.57
2022-10-19T04:01:47.498Z,89.37
2022-10-19T04:04:16.810Z,89.80
2022-10-19T04:06:45.864Z,90.19
2022-10-19T04:09:14.572Z,89.81
2022-10-19T04:11:41.603Z,89.87
2022-10-19T04:16:35.960Z,89.96
2022-10-19T04:19:03.486Z,89.97
2022-10-19T04:21:32.845Z,89.83
2022-10-19T04:24:08.241Z,90.40
2022-10-19T04:26:39.762Z,89.87
2022-10-19T04:29:06.409Z,90.40
2022-10-19T04:31:32.884Z,89.97
2022-10-19T04:33:59.491Z,90.37
2022-10-19T04:36:26.148Z,90.89
2022-10-19T04:38:52.616Z,90.58
2022-10-19T04:41:20.923Z,90.70
2022-10-19T04:43:48.563Z,90.77
2022-10-19T04:46:19.884Z,90.77
2022-10-19T04:48:47.769Z,90.71
2022-10-19T04:51:15.049Z,90.70
2022-10-19T04:53:42.744Z,90.64
2022-10-19T04:56:15.467Z,90.98
2022-10-19T04:58:42.421Z,90.68
2022-10-19T05:01:14.985Z,91.05
2022-10-19T05:03:41.496Z,91.07
2022-10-19T05:06:08.955Z,91.70
2022-10-19T05:08:36.919Z,91.64
2022-10-19T05:11:06.203Z,91.70
2022-10-19T05:13:33.447Z,92.08
2022-10-19T05:16:01.714Z,92.17
2022-10-19T05:18:28.756Z,92.15
2022-10-19T05:21:02.662Z,92.30
2022-10-19T05:23:29.571Z,92.13
2022-10-19T05:26:13.425Z,92.10
2022-10-19T05:28:40.344Z,91.57
2022-10-19T05:31:11.945Z,91.70
2022-10-19T05:33:39.539Z,91.88
2022-10-19T05:36:14.079Z,92.26
2022-10-19T05:38:40.911Z,91.91
2022-10-19T05:41:07.596Z,91.96
2022-10-19T05:43:34.085Z,92.09
2022-10-19T05:46:08.544Z,91.96
2022-10-19T05:48:35.556Z,92.04
2022-10-19T05:51:05.235Z,92.35
2022-10-19T05:53:32.915Z,92.52
2022-10-19T05:55:59.438Z,92.42
2022-10-19T05:58:25.978Z,92.59
2022-10-19T06:00:58.368Z,92.87
2022-10-19T06:03:26.151Z,92.66
2022-10-19T06:05:53.497Z,92.54
2022-10-19T06:08:21.424Z,92.65
2022-10-19T06:10:49.065Z,92.93
2022-10-19T06:13:17.238Z,92.62
2022-10-19T06:15:44.037Z,92.52
2022-10-19T06:18:12.108Z,92.38
2022-10-19T06:20:40.935Z,92.63
2022-10-19T06:23:08.474Z,92.48
2022-10-19T06:25:36.017Z,92.76
2022-10-19T06:28:03.473Z,92.67
2022-10-19T06:30:29.950Z,92.90
2022-10-19T06:32:56.591Z,92.49
2022-10-19T06:35:23.113Z,92.93
2022-10-19T06:37:49.568Z,93.51
2022-10-19T06:40:16.128Z,93.86
2022-10-19T06:42:42.591Z,93.94
2022-10-19T06:45:10.328Z,93.92
2022-10-19T06:47:37.182Z,94.21
2022-10-19T06:50:05.988Z,94.18
2022-10-19T06:52:34.045Z,94.26
2022-10-19T06:55:01.270Z,94.45
2022-10-19T06:57:28.564Z,94.62
2022-10-19T06:59:55.585Z,94.82
2022-10-19T07:02:22.063Z,95.24
2022-10-19T07:04:48.656Z,95.33
2022-10-19T07:07:15.130Z,95.48
2022-10-19T07:09:41.578Z,95.41
2022-10-19T07:12:10.656Z,95.99
2022-10-19T07:14:39.446Z,95.99
2022-10-19T07:17:10.987Z,96.48
2022-10-19T07:19:37.782Z,96.39
2022-10-19T07:22:04.684Z,96.74
2022-10-19T07:24:31.143Z,97.13
2022-10-19T07:26:57.618Z,97.33
2022-10-19T07:29:24.088Z,97.56
2022-10-19T07:31:50.559Z,97.88
2022-10-19T07:34:17.061Z,98.14
2022-10-19T07:36:48.030Z,97.98
2022-10-19T07:39:16.889Z,97.81
2022-10-19T07:41:43.893Z,98.00
2022-10-19T07:44:14.785Z,98.40
2022-10-19T07:46:42.193Z,97.35
2022-10-19T07:49:12.870Z,97.86
2022-10-19T07:51:40.542Z,98.44
2022-10-19T07:54:07.047Z,98.55
2022-10-19T07:56:34.811Z,99.06
2022-10-19T07:59:01.701Z,98.91
2022-10-19T08:01:31.112Z,99.08
2022-10-19T08:04:48.983Z,99.57
2022-10-19T08:06:45.445Z,99.78
2022-10-19T08:09:27.646Z,99.35
2022-10-19T08:11:58.351Z,99.76
2022-10-19T08:14:24.857Z,99.92
2022-10-19T08:16:51.363Z,100.00
2022-10-19T08:19:18.082Z,99.73
2022-10-19T08:21:46.624Z,99.58
2022-10-19T08:24:15.354Z,99.92
2022-10-19T08:26:42.088Z,100.00
2022-10-19T08:29:17.766Z,100.00
2022-10-19T08:31:46.089Z,100.00
2022-10-19T08:34:14.019Z,99.78
2022-10-19T08:39:13.128Z,100.00
2022-10-19T08:42:00.711Z,99.51
2022-10-19T08:44:48.942Z,99.75
2022-10-19T08:47:47.005Z,99.35
2022-10-19T08:50:26.812Z,99.38
2022-10-19T08:53:03.285Z,99.17
2022-10-19T08:55:41.320Z,98.75
2022-10-19T08:58:19.709Z,98.92
2022-10-19T09:01:00.199Z,98.62
2022-10-19T09:04:02.302Z,98.42
2022-10-19T09:06:41.728Z,98.03
2022-10-19T09:09:13.184Z,97.99
2022-10-19T09:11:44.271Z,97.56
2022-10-19T09:14:28.031Z,97.04
2022-10-19T09:17:01.202Z,96.55
2022-10-19T09:19:30.806Z,96.12
2022-10-19T09:22:07.768Z,95.87
2022-10-19T09:24:43.797Z,95.70
2022-10-19T09:27:24.676Z,95.59
2022-10-19T09:29:55.597Z,95.19
2022-10-19T09:32:32.488Z,95.60
2022-10-19T09:35:17.276Z,94.87
2022-10-19T09:37:47.271Z,94.75
2022-10-19T09:40:22.569Z,93.75
2022-10-19T09:42:56.804Z,94.17
2022-10-19T09:45:34.406Z,93.93
2022-10-19T09:48:07.119Z,93.89
2022-10-19T09:50:35.303Z,93.73
2022-10-19T09:53:05.705Z,93.35
2022-10-19T09:55:42.603Z,93.19
2022-10-19T09:58:15.262Z,92.49
2022-10-19T10:00:47.194Z,92.01
2022-10-19T10:03:22.837Z,90.78
2022-10-19T10:05:49.775Z,90.54
2022-10-19T10:08:27.852Z,88.80
2022-10-19T10:10:54.263Z,88.86
2022-10-19T10:13:24.138Z,88.35
2022-10-19T10:15:56.620Z,88.44
2022-10-19T10:18:25.064Z,88.28
2022-10-19T10:20:59.443Z,88.24
2022-10-19T10:23:30.928Z,88.00
2022-10-19T10:25:59.532Z,87.53
2022-10-19T10:28:28.415Z,87.18
2022-10-19T10:31:07.241Z,87.68
2022-10-19T10:33:44.694Z,86.93
2022-10-19T10:36:13.019Z,87.19
2022-10-19T10:38:47.338Z,86.61
2022-10-19T10:41:17.618Z,86.09
2022-10-19T10:43:59.644Z,85.97
2022-10-19T10:46:38.034Z,85.40
2022-10-19T10:49:07.124Z,85.58
2022-10-19T10:51:39.827Z,85.34
2022-10-19T10:54:09.042Z,85.40
2022-10-19T10:56:35.533Z,84.54
2022-10-19T10:59:10.060Z,84.40
2022-10-19T11:02:02.712Z,84.69
2022-10-19T11:04:36.670Z,84.05
2022-10-19T11:07:16.413Z,83.88
2022-10-19T11:09:48.044Z,84.07
2022-10-19T11:12:18.012Z,83.55
2022-10-19T11:15:03.950Z,83.14
2022-10-19T11:17:36.640Z,82.48
2022-10-19T11:20:06.141Z,81.81
2022-10-19T11:22:47.171Z,82.22
2022-10-19T11:25:36.477Z,82.05
2022-10-19T11:28:33.939Z,81.83
2022-10-19T11:31:44.357Z,82.00
2022-10-19T11:34:16.902Z,80.73
2022-10-19T11:36:54.007Z,80.93
2022-10-19T11:39:41.926Z,80.47
2022-10-19T11:42:29.911Z,80.23
2022-10-19T11:45:15.619Z,79.16
2022-10-19T11:48:12.801Z,79.65
2022-10-19T11:50:54.382Z,79.36
2022-10-19T11:53:50.544Z,79.01
2022-10-19T11:56:44.656Z,78.42
2022-10-19T11:59:33.125Z,77.86
2022-10-19T12:02:48.051Z,79.08
2022-10-19T12:05:26.321Z,77.60
2022-10-19T12:08:01.496Z,75.94
2022-10-19T12:10:43.058Z,76.85
2022-10-19T12:13:15.323Z,75.72
2022-10-19T12:15:48.561Z,75.47
2022-10-19T12:18:32.209Z,76.87
2022-10-19T12:21:02.773Z,76.13
2022-10-19T12:23:34.037Z,75.83
2022-10-19T12:26:04.501Z,75.20
2022-10-19T12:28:35.607Z,74.61
2022-10-19T12:31:04.088Z,73.94
2022-10-19T12:33:36.283Z,73.82
2022-10-19T12:36:30.032Z,74.45
2022-10-19T12:39:08.162Z,73.74
2022-10-19T12:41:39.038Z,73.66
2022-10-19T12:47:01.405Z,74.26
2022-10-19T12:49:30.853Z,73.17
2022-10-19T12:51:59.606Z,72.84
2022-10-19T12:54:28.417Z,72.49
2022-10-19T12:56:57.930Z,71.98
2022-10-19T12:59:28.919Z,70.20
2022-10-19T13:01:57.004Z,69.61
2022-10-19T13:04:26.793Z,69.62
2022-10-19T13:07:10.427Z,70.79
2022-10-19T13:09:42.544Z,70.43
2022-10-19T13:12:19.511Z,70.76
2022-10-19T13:15:00.464Z,68.83
2022-10-19T13:17:50.565Z,70.38
2022-10-19T13:20:17.048Z,68.10
2022-10-19T13:22:46.322Z,70.11
2022-10-19T13:25:23.762Z,69.83
2022-10-19T13:27:52.068Z,67.41
2022-10-19T13:30:39.646Z,69.60
2022-10-19T13:33:24.647Z,69.46
2022-10-19T13:36:00.239Z,68.02
2022-10-19T13:38:31.915Z,68.16
2022-10-19T13:41:25.796Z,68.67
2022-10-19T13:44:20.925Z,69.22
2022-10-19T13:47:20.413Z,68.93
2022-10-19T13:49:52.483Z,68.63
2022-10-19T13:52:46.951Z,69.33
2022-10-19T13:55:27.989Z,68.75
2022-10-19T13:58:22.599Z,68.95
2022-10-19T14:01:21.063Z,68.56
2022-10-19T14:03:47.528Z,68.16
2022-10-19T14:06:38.707Z,68.09
2022-10-19T14:09:37.173Z,68.25
2022-10-19T14:12:09.106Z,67.72
2022-10-19T14:14:43.625Z,67.10
2022-10-19T14:20:01.674Z,67.68
2022-10-19T14:22:38.160Z,67.49
2022-10-19T14:25:06.592Z,68.72
2022-10-19T14:27:33.793Z,68.27
2022-10-19T14:30:00.716Z,68.23
2022-10-19T14:32:29.409Z,67.09
2022-10-19T14:37:37.443Z,67.80
2022-10-19T14:40:26.628Z,67.50
2022-10-19T14:42:56.867Z,66.42
2022-10-19T14:45:29.198Z,67.43
2022-10-19T14:48:05.093Z,67.20
2022-10-19T14:50:44.912Z,67.14
2022-10-19T14:53:20.459Z,67.50
2022-10-19T14:55:49.567Z,67.57
2022-10-19T14:58:20.453Z,68.24
2022-10-19T15:00:49.634Z,67.97
2022-10-19T15:03:26.777Z,68.32
2022-10-19T15:06:01.238Z,68.43
2022-10-19T15:08:45.104Z,68.86
2022-10-19T15:11:26.395Z,68.65
2022-10-19T15:14:03.515Z,68.67
2022-10-19T15:16:34.087Z,68.29
2022-10-19T15:19:06.427Z,68.85
2022-10-19T15:21:33.483Z,68.09
2022-10-19T15:24:24.901Z,68.95
2022-10-19T15:27:06.529Z,68.87
2022-10-19T15:29:35.120Z,69.32
2022-10-19T15:32:16.147Z,69.50
2022-10-19T15:34:44.295Z,69.36
2022-10-19T15:37:18.033Z,69.24
2022-10-19T15:39:45.723Z,69.06
2022-10-19T15:42:44.069Z,70.45
2022-10-19T15:45:33.324Z,70.43
2022-10-19T15:48:14.772Z,70.34
2022-10-19T15:50:47.786Z,70.44
2022-10-19T15:53:15.053Z,69.95
2022-10-19T15:55:41.579Z,70.40
2022-10-19T15:58:11.224Z,70.46
2022-10-19T16:00:38.895Z,70.58
2022-10-19T16:03:05.632Z,70.95
2022-10-19T16:05:32.879Z,71.02
2022-10-19T16:07:59.336Z,70.57
2022-10-19T16:10:27.105Z,70.49
2022-10-19T16:12:53.773Z,71.07
2022-10-19T16:15:22.916Z,70.97
2022-10-19T16:17:55.439Z,71.42
2022-10-19T16:20:23.116Z,71.83
2022-10-19T16:22:50.408Z,71.58
2022-10-19T16:25:17.330Z,72.42
2022-10-19T16:27:44.114Z,72.03
2022-10-19T16:30:11.995Z,72.55
2022-10-19T16:32:39.868Z,72.60
2022-10-19T16:35:08.330Z,72.97
2022-10-19T16:37:35.288Z,72.92
2022-10-19T16:40:01.980Z,73.34
2022-10-19T16:42:30.494Z,72.93
2022-10-19T16:44:57.223Z,73.10
2022-10-19T16:47:23.694Z,73.06
2022-10-19T16:49:57.829Z,73.23
2022-10-19T16:52:24.389Z,73.41
2022-10-19T16:54:50.902Z,73.34
2022-10-19T16:57:17.379Z,73.66
2022-10-19T16:59:43.902Z,73.76
2022-10-19T17:02:11.420Z,73.95
2022-10-19T17:04:37.935Z,74.51
2022-10-19T17:07:04.488Z,74.78
2022-10-19T17:09:41.210Z,74.99
2022-10-19T17:12:09.212Z,75.05
2022-10-19T17:14:36.740Z,75.67
2022-10-19T17:17:03.290Z,75.28
2022-10-19T17:19:29.978Z,75.36
2022-10-19T17:21:57.652Z,75.64
2022-10-19T17:24:24.344Z,75.49
2022-10-19T17:26:52.047Z,76.00
2022-10-19T17:29:20.076Z,75.55
2022-10-19T17:31:46.864Z,76.01
2022-10-19T17:34:13.839Z,75.62
2022-10-19T17:36:44.263Z,75.70
2022-10-19T17:39:19.708Z,75.83
2022-10-19T17:41:47.950Z,75.78
2022-10-19T17:44:15.123Z,75.46
2022-10-19T17:46:41.949Z,75.68
2022-10-19T17:49:08.923Z,75.90
2022-10-19T17:51:36.216Z,75.60
2022-10-19T17:54:05.632Z,75.79
2022-10-19T17:56:32.195Z,75.55
2022-10-19T17:58:59.515Z,75.54
2022-10-19T18:01:26.868Z,76.08
2022-10-19T18:03:53.675Z,75.82
2022-10-19T18:06:26.206Z,75.97
2022-10-19T18:08:55.700Z,76.22
2022-10-19T18:11:24.688Z,76.11
2022-10-19T18:13:52.239Z,76.15
2022-10-19T18:16:21.570Z,76.02
2022-10-19T18:18:50.060Z,76.23
2022-10-19T18:21:22.032Z,75.97
2022-10-19T18:23:48.753Z,75.96
2022-10-19T18:26:21.948Z,76.07
2022-10-19T18:28:50.045Z,76.02
2022-10-19T18:31:21.893Z,76.67
2022-10-19T18:33:49.226Z,76.51
2022-10-19T18:36:15.866Z,76.01
2022-10-19T18:38:42.361Z,76.32
2022-10-19T18:43:43.581Z,76.28
2022-10-19T18:46:10.621Z,76.28
2022-10-19T18:48:38.151Z,76.83
2022-10-19T18:51:09.133Z,76.71
2022-10-19T18:53:35.750Z,76.92
2022-10-19T18:56:05.722Z,77.00
2022-10-19T18:58:33.651Z,77.10
2022-10-19T19:01:02.769Z,76.99
2022-10-19T19:03:29.568Z,77.21
2022-10-19T19:05:59.788Z,77.27
2022-10-19T19:08:26.354Z,77.10
2022-10-19T19:10:52.890Z,77.23
2022-10-19T19:13:19.398Z,77.19
2022-10-19T19:15:45.856Z,77.41
2022-10-19T19:18:12.354Z,77.54
2022-10-19T19:20:41.873Z,77.54
2022-10-19T19:23:08.337Z,77.75
2022-10-19T19:25:34.897Z,77.86
2022-10-19T19:28:01.351Z,77.63
2022-10-19T19:30:27.804Z,77.59
2022-10-19T19:32:54.256Z,77.74
2022-10-19T19:35:20.699Z,77.80
2022-10-19T19:37:47.164Z,78.00
2022-10-19T19:40:13.653Z,78.05
2022-10-19T19:42:40.188Z,78.21
2022-10-19T19:45:07.308Z,78.30
2022-10-19T19:47:34.121Z,78.43
2022-10-19T19:50:00.851Z,78.70
2022-10-19T19:52:27.768Z,78.89
2022-10-19T19:54:54.295Z,78.73
2022-10-19T19:57:20.939Z,78.92
2022-10-19T19:59:47.451Z,79.32
2022-10-19T20:02:16.278Z,78.95
2022-10-19T20:04:42.739Z,79.05
2022-10-19T20:07:09.223Z,79.53
2022-10-19T20:09:35.720Z,79.82
2022-10-19T20:12:02.316Z,79.83
2022-10-19T20:14:28.883Z,79.92
2022-10-19T20:16:55.368Z,80.20
2022-10-19T20:19:22.175Z,80.21
2022-10-19T20:21:48.699Z,80.06
2022-10-19T20:24:15.277Z,80.05
2022-10-19T20:26:41.728Z,80.45
2022-10-19T20:29:08.354Z,80.28
2022-10-19T20:31:39.485Z,80.79
2022-10-19T20:34:10.650Z,80.06
2022-10-19T20:36:37.124Z,80.12
2022-10-19T20:39:03.722Z,80.58
2022-10-19T20:41:30.177Z,80.33
2022-10-19T20:43:57.007Z,80.58
2022-10-19T20:46:27.045Z,80.99
2022-10-19T20:48:55.522Z,80.77
2022-10-19T20:51:29.110Z,81.10
2022-10-19T20:54:00.463Z,80.98
2022-10-19T20:56:29.809Z,81.18
2022-10-19T20:59:07.520Z,81.91
2022-10-19T21:01:36.416Z,81.63
2022-10-19T21:04:04.784Z,81.56
2022-10-19T21:06:34.617Z,82.06
2022-10-19T21:09:01.138Z,82.15
2022-10-19T21:11:30.356Z,81.67
2022-10-19T21:14:03.108Z,82.07
2022-10-19T21:16:33.399Z,81.52
2022-10-19T21:19:01.838Z,81.89
2022-10-19T21:21:39.784Z,82.46
2022-10-19T21:24:17.957Z,82.49
2022-10-19T21:26:44.682Z,82.21
2022-10-19T21:29:12.609Z,82.54
2022-10-19T21:31:44.067Z,82.57
2022-10-19T21:34:16.304Z,82.64
2022-10-19T21:36:42.868Z,82.84
2022-10-19T21:39:09.709Z,82.81
2022-10-19T21:41:36.507Z,82.89
2022-10-19T21:44:03.022Z,83.00
2022-10-19T21:46:29.541Z,83.03
2022-10-19T21:48:56.918Z,82.98
2022-10-19T21:51:50.585Z,83.53
2022-10-19T21:54:19.528Z,83.27
2022-10-19T21:56:46.776Z,83.56
2022-10-19T21:59:13.564Z,83.37
2022-10-19T22:01:41.622Z,83.38
2022-10-19T22:04:12.130Z,83.75
2022-10-19T22:06:39.425Z,83.69
2022-10-19T22:09:09.010Z,83.70
2022-10-19T22:11:35.735Z,83.93
2022-10-19T22:14:03.477Z,84.30
2022-10-19T22:16:30.815Z,84.05
2022-10-19T22:18:57.336Z,84.43
2022-10-19T22:21:26.506Z,84.72
2022-10-19T22:23:55.662Z,84.59
2022-10-19T22:26:28.559Z,84.78
2022-10-19T22:28:57.067Z,84.68
2022-10-19T22:31:24.876Z,84.77
2022-10-19T22:33:51.396Z,84.89
2022-10-19T22:36:18.352Z,85.19
2022-10-19T22:38:45.011Z,85.30
2022-10-19T22:42:04.323Z,85.68
2022-10-19T22:44:31.177Z,85.48
2022-10-19T22:46:58.273Z,85.42
2022-10-19T22:49:24.803Z,85.83
2022-10-19T22:51:51.276Z,85.49
2022-10-19T22:54:17.743Z,85.84
2022-10-19T22:56:44.284Z,85.94
2022-10-19T22:59:10.762Z,85.93
2022-10-19T23:01:37.710Z,86.68
2022-10-19T23:04:04.357Z,86.53
2022-10-19T23:06:31.015Z,86.71
2022-10-19T23:08:57.558Z,86.72
2022-10-19T23:11:24.156Z,86.77
2022-10-19T23:13:50.622Z,86.88
2022-10-19T23:16:17.248Z,87.07
2022-10-19T23:18:43.839Z,87.05
2022-10-19T23:21:14.963Z,87.52
2022-10-19T23:23:42.202Z,87.48
2022-10-19T23:26:14.980Z,87.58
2022-10-19T23:28:43.380Z,87.88
2022-10-19T23:31:17.930Z,87.75
2022-10-19T23:33:45.106Z,88.18
2022-10-19T23:36:17.712Z,88.33
2022-10-19T23:38:44.884Z,88.03
2022-10-19T23:41:12.579Z,88.15
2022-10-19T23:43:39.682Z,88.42
2022-10-19T23:46:06.937Z,88.40
2022-10-19T23:48:34.439Z,88.32
2022-10-19T23:51:03.748Z,88.53
2022-10-19T23:53:34.640Z,88.84
2022-10-19T23:56:09.536Z,89.03
2022-10-19T23:58:36.063Z,88.81
